»·PEaware :: DAL2256 KONT-KSLC

DAL2256 :: KONT-KSLC

FLIGHT INFORMATION

Flight Status: Arrived
Operator:
Delta Air Lines
More flights by this operator :: More flights under this callsign
Pilot: Joshua V. (18904)
Aircraft: BOEING 737-800
(B738)
More flights by this aircraft type
Origin: KONT Ontario Intl
United States
Destination: KSLC Salt Lake City Intl
United States
More flights between these airports :: More routes between these airports
Route: SNSHN5 LAS Q70 BLIPP Q842 WINEN MLF DELTA6
File this flight plan on PilotEdge
Remarks:
Altitude:
(Current/Filed)
37,000ft
Speed:
(Current/Filed)
454kts
Departed: 11-Jan-22 03:33 PM
Arrived: 11-Jan-22 05:00 PM
Distance/Time
Traveled:
484nm/1:27
Distance/Time
To Go:
Arrived

Flight Plot

Page will automatically refresh every two minutes.

Flight plan parsing failed; only flown route is shown


Map Options




Map Legend


Flown Route
Filed Route
Departure Airport
Arrival Airport
Navaid (VOR, NDB)
Fix

Horizontal Profiles

Position Reports

Time Latitude Longitude Heading Altitude Ground
Speed
11-Jan-22 15:01 34.059997 -117.595178 359 951ft 0kts
11-Jan-22 15:02 34.059997 -117.595178 359 951ft 0kts
11-Jan-22 15:03 34.059997 -117.595178 359 951ft 0kts
11-Jan-22 15:04 34.059997 -117.595178 359 951ft 0kts
11-Jan-22 15:05 34.059997 -117.595178 359 951ft 0kts
11-Jan-22 15:06 34.059997 -117.595178 359 951ft 0kts
11-Jan-22 15:07 34.059997 -117.595178 359 951ft 0kts
11-Jan-22 15:08 34.059997 -117.595178 359 951ft 0kts
11-Jan-22 15:09 34.059997 -117.595178 359 951ft 0kts
11-Jan-22 15:10 34.059997 -117.595178 359 951ft 0kts
11-Jan-22 15:11 34.059997 -117.595178 359 951ft 0kts
11-Jan-22 15:12 34.059997 -117.595178 359 951ft 0kts
11-Jan-22 15:13 34.059997 -117.595178 359 951ft 0kts
11-Jan-22 15:14 34.059997 -117.595178 359 951ft 0kts
11-Jan-22 15:15 34.059997 -117.595178 359 951ft 0kts
11-Jan-22 15:16 34.059997 -117.595178 359 951ft 0kts
11-Jan-22 15:17 34.059997 -117.595178 360 951ft 0kts
11-Jan-22 15:18 34.059997 -117.595178 360 951ft 0kts
11-Jan-22 15:19 34.059997 -117.595178 359 951ft 0kts
11-Jan-22 15:19 34.059889 -117.595178 359 951ft 2kts
11-Jan-22 15:21 34.059184 -117.595199 26 947ft 2kts
11-Jan-22 15:22 34.059019 -117.595844 89 947ft 2kts
11-Jan-22 15:23 34.059021 -117.596030 90 947ft 0kts
11-Jan-22 15:23 34.059021 -117.596030 90 947ft 0kts
11-Jan-22 15:24 34.059021 -117.596030 90 947ft 0kts
11-Jan-22 15:26 34.059021 -117.596030 90 947ft 0kts
11-Jan-22 15:27 34.059017 -117.595141 89 947ft 6kts
11-Jan-22 15:27 34.059017 -117.592637 89 947ft 10kts
11-Jan-22 15:28 34.059027 -117.588931 89 947ft 11kts
11-Jan-22 15:30 34.059021 -117.584710 89 947ft 10kts
11-Jan-22 15:30 34.058446 -117.582534 178 946ft 9kts
11-Jan-22 15:31 34.056913 -117.583299 270 941ft 0kts
11-Jan-22 15:32 34.056931 -117.616466 270 1392ft 172kts
11-Jan-22 15:33 34.058156 -117.682906 272 3177ft 246kts
11-Jan-22 15:34 34.074659 -117.770380 290 6216ft 280kts
11-Jan-22 15:35 34.123146 -117.844735 320 9605ft 293kts
11-Jan-22 15:36 34.191329 -117.915537 321 11806ft 356kts
11-Jan-22 15:37 34.278873 -117.964211 9 15429ft 360kts
11-Jan-22 15:38 34.362034 -117.901277 57 18950ft 373kts
11-Jan-22 15:39 34.381064 -117.776194 82 22196ft 389kts
11-Jan-22 15:40 34.391039 -117.644536 78 25069ft 398kts
11-Jan-22 15:41 34.437757 -117.523729 53 27452ft 409kts
11-Jan-22 15:42 34.506530 -117.411861 53 29594ft 420kts
11-Jan-22 15:43 34.575885 -117.298166 53 31825ft 422kts
11-Jan-22 15:44 34.645446 -117.183519 54 33768ft 423kts
11-Jan-22 15:45 34.715264 -117.068071 53 35338ft 427kts
11-Jan-22 15:46 34.785657 -116.951305 52 36590ft 432kts
11-Jan-22 15:47 34.857234 -116.832185 52 37354ft 444kts
11-Jan-22 15:48 34.932505 -116.711476 46 37384ft 447kts
11-Jan-22 15:49 35.016306 -116.600736 45 37385ft 447kts
11-Jan-22 15:50 35.100837 -116.489202 45 37383ft 446kts
11-Jan-22 15:51 35.183781 -116.379370 45 37384ft 446kts
11-Jan-22 15:52 35.267866 -116.267632 46 37384ft 446kts
11-Jan-22 15:53 35.351495 -116.156141 46 37384ft 445kts
11-Jan-22 15:54 35.434488 -116.045122 46 37384ft 445kts
11-Jan-22 15:55 35.517971 -115.933125 46 37405ft 446kts
11-Jan-22 15:56 35.601582 -115.820575 46 37410ft 446kts
11-Jan-22 15:57 35.684402 -115.707715 46 37410ft 446kts
11-Jan-22 15:58 35.766844 -115.594069 46 37411ft 446kts
11-Jan-22 15:59 35.849084 -115.480409 46 37229ft 450kts
11-Jan-22 16:00 35.930448 -115.367737 46 36999ft 443kts
11-Jan-22 16:01 36.011995 -115.254310 47 36998ft 440kts
11-Jan-22 16:02 36.094668 -115.144742 40 36999ft 436kts
11-Jan-22 16:03 36.185401 -115.046204 39 37001ft 434kts
11-Jan-22 16:04 36.276057 -114.948320 39 37004ft 433kts
11-Jan-22 16:05 36.366505 -114.850320 39 37001ft 433kts
11-Jan-22 16:06 36.457084 -114.752121 39 37000ft 432kts
11-Jan-22 16:07 36.547142 -114.653908 38 36999ft 431kts
11-Jan-22 16:08 36.636817 -114.555860 39 36995ft 431kts
11-Jan-22 16:09 36.729781 -114.462238 31 36998ft 429kts
11-Jan-22 16:10 36.829816 -114.382016 29 36997ft 430kts
11-Jan-22 16:11 36.930620 -114.302368 30 36998ft 429kts
11-Jan-22 16:12 37.031070 -114.222961 30 36999ft 430kts
11-Jan-22 16:13 37.132119 -114.142859 29 37000ft 430kts
11-Jan-22 16:14 37.232587 -114.063134 29 37317ft 423kts
11-Jan-22 16:15 37.333949 -113.982560 29 37493ft 438kts
11-Jan-22 16:16 37.435913 -113.901095 29 37494ft 435kts
11-Jan-22 16:17 37.537671 -113.819591 29 37492ft 435kts
11-Jan-22 16:18 37.639430 -113.737842 29 37494ft 436kts
11-Jan-22 16:19 37.741406 -113.655712 29 37493ft 436kts
11-Jan-22 16:20 37.843221 -113.573230 28 37495ft 435kts
11-Jan-22 16:21 37.942997 -113.486190 36 37493ft 438kts
11-Jan-22 16:22 38.034616 -113.384610 37 37493ft 440kts
11-Jan-22 16:23 38.125918 -113.281252 38 37494ft 441kts
11-Jan-22 16:24 38.216999 -113.177496 38 37494ft 439kts
11-Jan-22 16:25 38.307411 -113.074023 38 37498ft 439kts
11-Jan-22 16:26 38.407620 -112.989442 20 37506ft 430kts
11-Jan-22 16:27 38.516962 -112.930027 19 37507ft 429kts
11-Jan-22 16:28 38.626897 -112.871084 19 37509ft 430kts
11-Jan-22 16:29 38.737245 -112.811886 19 37510ft 429kts
11-Jan-22 16:30 38.847137 -112.752692 19 37512ft 430kts
11-Jan-22 16:31 38.956901 -112.693427 19 37523ft 431kts
11-Jan-22 16:32 39.067381 -112.633556 19 37539ft 431kts
11-Jan-22 16:33 39.177635 -112.573606 19 37540ft 432kts
11-Jan-22 16:34 39.285379 -112.515438 17 35477ft 404kts
11-Jan-22 16:35 39.388347 -112.477505 12 32789ft 382kts
11-Jan-22 16:36 39.493119 -112.442510 10 30115ft 400kts
11-Jan-22 16:37 39.599044 -112.407168 10 27794ft 390kts
11-Jan-22 16:38 39.703129 -112.372354 10 25470ft 386kts
11-Jan-22 16:39 39.806529 -112.337713 11 23101ft 382kts
11-Jan-22 16:40 39.907460 -112.303717 11 20424ft 366kts
11-Jan-22 16:41 40.004604 -112.270985 11 18140ft 362kts
11-Jan-22 16:42 40.100489 -112.238617 12 17300ft 361kts
11-Jan-22 16:43 40.196817 -112.205916 11 16815ft 349kts
11-Jan-22 16:44 40.290400 -112.174109 12 14482ft 343kts
11-Jan-22 16:45 40.383863 -112.142274 12 14190ft 349kts
11-Jan-22 16:46 40.476514 -112.110605 12 13308ft 344kts
11-Jan-22 16:47 40.568662 -112.083373 3 12197ft 337kts
11-Jan-22 16:48 40.661415 -112.081817 354 11197ft 337kts
11-Jan-22 16:49 40.754850 -112.092311 353 11179ft 338kts
11-Jan-22 16:50 40.844958 -112.102969 353 11170ft 288kts
11-Jan-22 16:51 40.915010 -112.111130 353 10548ft 239kts
11-Jan-22 16:52 40.981172 -112.119609 353 9356ft 239kts
11-Jan-22 16:53 41.032603 -112.084166 83 9178ft 240kts
11-Jan-22 16:54 40.996148 -112.018359 163 8017ft 231kts
11-Jan-22 16:55 40.932976 -112.014421 173 6727ft 224kts
11-Jan-22 16:56 40.875177 -112.007207 173 5566ft 187kts
11-Jan-22 16:57 40.828802 -112.001725 175 4679ft 152kts
11-Jan-22 16:58 40.792955 -111.997612 174 4225ft 64kts
11-Jan-22 16:59 40.786846 -111.993721 151 4225ft 7kts
11-Jan-22 17:00 40.784292 -111.993261 125 4225ft 9kts
11-Jan-22 17:01 40.784600 -111.989656 35 4225ft 3kts
11-Jan-22 17:02 40.784972 -111.989614 355 4225ft 0kts
11-Jan-22 17:03 40.784972 -111.989614 355 4225ft 0kts

Navigation Log

Ident Type
Flight plan parsing failed, navigation log unavailable